sensor_id;sensor_type;location;lat;lon;timestamp;P1;durP1;ratioP1;P2;durP2;ratioP2
46391;SDS011;32098;49.448;7.904;2023-10-19T00:01:16;5.57;;;4.78;;
46391;SDS011;32098;49.448;7.904;2023-10-19T00:03:44;8.53;;;5.00;;
46391;SDS011;32098;49.448;7.904;2023-10-19T00:06:11;9.87;;;5.33;;
46391;SDS011;32098;49.448;7.904;2023-10-19T00:08:38;7.57;;;4.80;;
46391;SDS011;32098;49.448;7.904;2023-10-19T00:11:11;8.30;;;5.10;;
46391;SDS011;32098;49.448;7.904;2023-10-19T00:13:48;6.53;;;5.30;;
46391;SDS011;32098;49.448;7.904;2023-10-19T00:16:20;7.23;;;5.30;;
46391;SDS011;32098;49.448;7.904;2023-10-19T00:18:52;7.73;;;5.67;;
46391;SDS011;32098;49.448;7.904;2023-10-19T00:21:19;7.40;;;5.60;;
46391;SDS011;32098;49.448;7.904;2023-10-19T00:23:53;9.50;;;5.60;;
46391;SDS011;32098;49.448;7.904;2023-10-19T00:26:25;7.70;;;4.77;;
46391;SDS011;32098;49.448;7.904;2023-10-19T00:28:55;8.15;;;5.20;;
46391;SDS011;32098;49.448;7.904;2023-10-19T00:31:23;8.00;;;5.53;;
46391;SDS011;32098;49.448;7.904;2023-10-19T00:33:51;9.87;;;5.40;;
46391;SDS011;32098;49.448;7.904;2023-10-19T00:36:23;8.53;;;5.40;;
46391;SDS011;32098;49.448;7.904;2023-10-19T00:38:51;6.43;;;5.20;;
46391;SDS011;32098;49.448;7.904;2023-10-19T00:41:24;7.50;;;5.23;;
46391;SDS011;32098;49.448;7.904;2023-10-19T00:43:58;8.90;;;5.53;;
46391;SDS011;32098;49.448;7.904;2023-10-19T00:46:38;8.53;;;5.30;;
46391;SDS011;32098;49.448;7.904;2023-10-19T00:49:12;9.17;;;5.27;;
46391;SDS011;32098;49.448;7.904;2023-10-19T00:51:43;6.80;;;4.90;;
46391;SDS011;32098;49.448;7.904;2023-10-19T00:54:30;6.50;;;5.07;;
46391;SDS011;32098;49.448;7.904;2023-10-19T00:57:02;7.60;;;4.97;;
46391;SDS011;32098;49.448;7.904;2023-10-19T00:59:32;6.57;;;5.13;;
46391;SDS011;32098;49.448;7.904;2023-10-19T01:02:05;8.73;;;5.10;;
46391;SDS011;32098;49.448;7.904;2023-10-19T01:04:49;8.70;;;5.33;;
46391;SDS011;32098;49.448;7.904;2023-10-19T01:07:22;8.63;;;4.50;;
46391;SDS011;32098;49.448;7.904;2023-10-19T01:09:49;5.90;;;4.60;;
46391;SDS011;32098;49.448;7.904;2023-10-19T01:12:21;7.13;;;4.43;;
46391;SDS011;32098;49.448;7.904;2023-10-19T01:17:47;6.63;;;3.95;;
46391;SDS011;32098;49.448;7.904;2023-10-19T01:20:19;7.10;;;4.70;;
46391;SDS011;32098;49.448;7.904;2023-10-19T01:23:10;5.93;;;4.47;;
46391;SDS011;32098;49.448;7.904;2023-10-19T01:25:47;5.32;;;4.45;;
46391;SDS011;32098;49.448;7.904;2023-10-19T01:28:25;7.13;;;4.80;;
46391;SDS011;32098;49.448;7.904;2023-10-19T01:31:20;7.82;;;4.45;;
46391;SDS011;32098;49.448;7.904;2023-10-19T01:33:58;8.63;;;4.70;;
46391;SDS011;32098;49.448;7.904;2023-10-19T01:36:28;6.55;;;4.70;;
46391;SDS011;32098;49.448;7.904;2023-10-19T01:38:58;6.72;;;4.43;;
46391;SDS011;32098;49.448;7.904;2023-10-19T01:41:29;6.72;;;4.90;;
46391;SDS011;32098;49.448;7.904;2023-10-19T01:43:59;6.95;;;4.90;;
46391;SDS011;32098;49.448;7.904;2023-10-19T01:46:31;8.90;;;5.53;;
46391;SDS011;32098;49.448;7.904;2023-10-19T01:49:00;9.90;;;5.03;;
46391;SDS011;32098;49.448;7.904;2023-10-19T01:51:30;8.15;;;4.93;;
46391;SDS011;32098;49.448;7.904;2023-10-19T01:53:59;8.00;;;4.67;;
46391;SDS011;32098;49.448;7.904;2023-10-19T01:56:29;6.77;;;4.60;;
46391;SDS011;32098;49.448;7.904;2023-10-19T01:58:56;5.63;;;4.97;;
46391;SDS011;32098;49.448;7.904;2023-10-19T02:01:23;7.07;;;4.80;;
46391;SDS011;32098;49.448;7.904;2023-10-19T02:03:54;5.95;;;4.68;;
46391;SDS011;32098;49.448;7.904;2023-10-19T02:06:32;7.25;;;4.72;;
46391;SDS011;32098;49.448;7.904;2023-10-19T02:09:04;6.65;;;4.95;;
46391;SDS011;32098;49.448;7.904;2023-10-19T02:11:36;9.07;;;5.00;;
46391;SDS011;32098;49.448;7.904;2023-10-19T02:14:08;8.25;;;4.90;;
46391;SDS011;32098;49.448;7.904;2023-10-19T02:16:56;4.57;;;4.18;;
46391;SDS011;32098;49.448;7.904;2023-10-19T02:19:26;8.38;;;4.38;;
46391;SDS011;32098;49.448;7.904;2023-10-19T02:21:55;7.40;;;4.45;;
46391;SDS011;32098;49.448;7.904;2023-10-19T02:24:23;5.93;;;4.05;;
46391;SDS011;32098;49.448;7.904;2023-10-19T02:26:52;5.32;;;4.43;;
46391;SDS011;32098;49.448;7.904;2023-10-19T02:29:21;5.38;;;4.63;;
46391;SDS011;32098;49.448;7.904;2023-10-19T02:31:54;7.72;;;4.43;;
46391;SDS011;32098;49.448;7.904;2023-10-19T02:34:22;5.32;;;4.45;;
46391;SDS011;32098;49.448;7.904;2023-10-19T02:36:49;5.97;;;4.53;;
46391;SDS011;32098;49.448;7.904;2023-10-19T02:39:16;5.80;;;4.35;;
46391;SDS011;32098;49.448;7.904;2023-10-19T02:41:47;7.05;;;4.70;;
46391;SDS011;32098;49.448;7.904;2023-10-19T02:44:16;6.38;;;4.30;;
46391;SDS011;32098;49.448;7.904;2023-10-19T02:46:44;7.55;;;4.50;;
46391;SDS011;32098;49.448;7.904;2023-10-19T02:49:12;5.23;;;4.60;;
46391;SDS011;32098;49.448;7.904;2023-10-19T02:51:41;7.95;;;5.05;;
46391;SDS011;32098;49.448;7.904;2023-10-19T02:54:13;6.32;;;4.72;;
46391;SDS011;32098;49.448;7.904;2023-10-19T02:56:56;10.20;;;4.47;;
46391;SDS011;32098;49.448;7.904;2023-10-19T02:59:26;7.60;;;5.10;;
46391;SDS011;32098;49.448;7.904;2023-10-19T03:01:56;6.65;;;4.68;;
46391;SDS011;32098;49.448;7.904;2023-10-19T03:04:50;8.13;;;5.22;;
46391;SDS011;32098;49.448;7.904;2023-10-19T03:07:16;9.40;;;5.38;;
46391;SDS011;32098;49.448;7.904;2023-10-19T03:09:44;6.87;;;4.47;;
46391;SDS011;32098;49.448;7.904;2023-10-19T03:12:20;8.48;;;4.75;;
46391;SDS011;32098;49.448;7.904;2023-10-19T03:14:51;6.35;;;4.47;;
46391;SDS011;32098;49.448;7.904;2023-10-19T03:17:18;6.78;;;4.60;;
46391;SDS011;32098;49.448;7.904;2023-10-19T03:19:45;6.35;;;4.93;;
46391;SDS011;32098;49.448;7.904;2023-10-19T03:22:12;6.88;;;4.20;;
46391;SDS011;32098;49.448;7.904;2023-10-19T03:24:39;5.78;;;4.35;;
46391;SDS011;32098;49.448;7.904;2023-10-19T03:27:11;8.88;;;4.70;;
46391;SDS011;32098;49.448;7.904;2023-10-19T03:29:44;8.48;;;4.70;;
46391;SDS011;32098;49.448;7.904;2023-10-19T03:32:19;20.17;;;14.00;;
46391;SDS011;32098;49.448;7.904;2023-10-19T03:34:53;20.17;;;12.15;;
46391;SDS011;32098;49.448;7.904;2023-10-19T03:37:25;11.95;;;7.63;;
46391;SDS011;32098;49.448;7.904;2023-10-19T03:39:56;7.72;;;6.43;;
46391;SDS011;32098;49.448;7.904;2023-10-19T03:42:24;7.13;;;5.15;;
46391;SDS011;32098;49.448;7.904;2023-10-19T03:44:59;5.57;;;4.90;;
46391;SDS011;32098;49.448;7.904;2023-10-19T03:47:34;7.43;;;5.28;;
46391;SDS011;32098;49.448;7.904;2023-10-19T03:50:02;6.75;;;4.68;;
46391;SDS011;32098;49.448;7.904;2023-10-19T03:52:35;8.77;;;4.57;;
46391;SDS011;32098;49.448;7.904;2023-10-19T03:55:04;5.30;;;4.80;;
46391;SDS011;32098;49.448;7.904;2023-10-19T03:57:50;9.63;;;8.63;;
46391;SDS011;32098;49.448;7.904;2023-10-19T04:00:18;9.88;;;6.72;;
46391;SDS011;32098;49.448;7.904;2023-10-19T04:02:45;10.60;;;8.88;;
46391;SDS011;32098;49.448;7.904;2023-10-19T04:05:13;9.23;;;6.72;;
46391;SDS011;32098;49.448;7.904;2023-10-19T04:07:46;9.88;;;6.95;;
46391;SDS011;32098;49.448;7.904;2023-10-19T04:10:16;7.70;;;5.30;;
46391;SDS011;32098;49.448;7.904;2023-10-19T04:13:03;9.43;;;8.20;;
46391;SDS011;32098;49.448;7.904;2023-10-19T04:15:30;11.65;;;5.97;;
46391;SDS011;32098;49.448;7.904;2023-10-19T04:18:00;10.32;;;5.50;;
46391;SDS011;32098;49.448;7.904;2023-10-19T04:20:28;8.32;;;5.50;;
46391;SDS011;32098;49.448;7.904;2023-10-19T04:23:13;10.45;;;8.23;;
46391;SDS011;32098;49.448;7.904;2023-10-19T04:25:42;15.02;;;6.75;;
46391;SDS011;32098;49.448;7.904;2023-10-19T04:28:12;10.90;;;6.90;;
46391;SDS011;32098;49.448;7.904;2023-10-19T04:30:46;10.88;;;7.72;;
46391;SDS011;32098;49.448;7.904;2023-10-19T04:33:14;9.80;;;4.90;;
46391;SDS011;32098;49.448;7.904;2023-10-19T04:35:43;8.95;;;5.38;;
46391;SDS011;32098;49.448;7.904;2023-10-19T04:38:10;9.32;;;5.22;;
46391;SDS011;32098;49.448;7.904;2023-10-19T04:40:36;9.05;;;6.43;;
46391;SDS011;32098;49.448;7.904;2023-10-19T04:43:03;8.63;;;6.25;;
46391;SDS011;32098;49.448;7.904;2023-10-19T04:45:32;10.15;;;6.00;;
46391;SDS011;32098;49.448;7.904;2023-10-19T04:48:00;11.13;;;5.00;;
46391;SDS011;32098;49.448;7.904;2023-10-19T04:50:29;9.90;;;5.60;;
46391;SDS011;32098;49.448;7.904;2023-10-19T04:52:56;11.23;;;5.83;;
46391;SDS011;32098;49.448;7.904;2023-10-19T04:55:22;12.30;;;4.88;;
46391;SDS011;32098;49.448;7.904;2023-10-19T04:57:49;9.83;;;5.70;;
46391;SDS011;32098;49.448;7.904;2023-10-19T05:00:17;9.27;;;4.60;;
46391;SDS011;32098;49.448;7.904;2023-10-19T05:02:46;8.23;;;4.85;;
46391;SDS011;32098;49.448;7.904;2023-10-19T05:05:12;7.82;;;4.90;;
46391;SDS011;32098;49.448;7.904;2023-10-19T05:07:43;9.63;;;5.22;;
46391;SDS011;32098;49.448;7.904;2023-10-19T05:10:11;9.05;;;5.93;;
46391;SDS011;32098;49.448;7.904;2023-10-19T05:12:38;9.90;;;5.15;;
46391;SDS011;32098;49.448;7.904;2023-10-19T05:15:04;7.45;;;5.22;;
46391;SDS011;32098;49.448;7.904;2023-10-19T05:17:32;11.15;;;5.57;;
46391;SDS011;32098;49.448;7.904;2023-10-19T05:19:58;9.48;;;6.63;;
46391;SDS011;32098;49.448;7.904;2023-10-19T05:22:25;8.52;;;5.53;;
46391;SDS011;32098;49.448;7.904;2023-10-19T05:24:56;7.60;;;4.35;;
46391;SDS011;32098;49.448;7.904;2023-10-19T05:27:22;11.95;;;4.95;;
46391;SDS011;32098;49.448;7.904;2023-10-19T05:29:50;6.63;;;4.22;;
46391;SDS011;32098;49.448;7.904;2023-10-19T05:32:17;6.30;;;4.30;;
46391;SDS011;32098;49.448;7.904;2023-10-19T05:34:44;7.50;;;3.97;;
46391;SDS011;32098;49.448;7.904;2023-10-19T05:37:11;6.10;;;4.43;;
46391;SDS011;32098;49.448;7.904;2023-10-19T05:39:38;5.05;;;3.75;;
46391;SDS011;32098;49.448;7.904;2023-10-19T05:42:05;6.18;;;3.70;;
46391;SDS011;32098;49.448;7.904;2023-10-19T05:44:32;7.05;;;3.50;;
46391;SDS011;32098;49.448;7.904;2023-10-19T05:46:59;6.85;;;3.55;;
46391;SDS011;32098;49.448;7.904;2023-10-19T05:49:26;5.55;;;3.55;;
46391;SDS011;32098;49.448;7.904;2023-10-19T05:51:55;6.40;;;3.28;;
46391;SDS011;32098;49.448;7.904;2023-10-19T05:54:22;6.95;;;3.63;;
46391;SDS011;32098;49.448;7.904;2023-10-19T05:56:50;4.07;;;2.88;;
46391;SDS011;32098;49.448;7.904;2023-10-19T05:59:18;5.00;;;2.88;;
46391;SDS011;32098;49.448;7.904;2023-10-19T06:01:44;7.35;;;3.22;;
46391;SDS011;32098;49.448;7.904;2023-10-19T06:04:15;4.28;;;2.90;;
46391;SDS011;32098;49.448;7.904;2023-10-19T06:06:46;5.95;;;2.83;;
46391;SDS011;32098;49.448;7.904;2023-10-19T06:09:13;4.97;;;2.97;;
46391;SDS011;32098;49.448;7.904;2023-10-19T06:11:41;4.90;;;3.00;;
46391;SDS011;32098;49.448;7.904;2023-10-19T06:14:11;4.80;;;3.40;;
46391;SDS011;32098;49.448;7.904;2023-10-19T06:16:37;6.75;;;3.50;;
46391;SDS011;32098;49.448;7.904;2023-10-19T06:19:04;5.25;;;3.70;;
46391;SDS011;32098;49.448;7.904;2023-10-19T06:21:32;6.68;;;3.78;;
46391;SDS011;32098;49.448;7.904;2023-10-19T06:24:00;10.93;;;3.85;;
46391;SDS011;32098;49.448;7.904;2023-10-19T06:26:26;7.45;;;4.30;;
46391;SDS011;32098;49.448;7.904;2023-10-19T06:28:53;7.15;;;4.03;;
46391;SDS011;32098;49.448;7.904;2023-10-19T06:31:25;4.57;;;3.40;;
46391;SDS011;32098;49.448;7.904;2023-10-19T06:33:52;5.13;;;3.50;;
46391;SDS011;32098;49.448;7.904;2023-10-19T06:36:19;9.13;;;3.70;;
46391;SDS011;32098;49.448;7.904;2023-10-19T06:38:46;7.03;;;4.00;;
46391;SDS011;32098;49.448;7.904;2023-10-19T06:41:13;7.53;;;3.53;;
46391;SDS011;32098;49.448;7.904;2023-10-19T06:43:40;5.50;;;3.83;;
46391;SDS011;32098;49.448;7.904;2023-10-19T06:46:07;6.35;;;3.67;;
46391;SDS011;32098;49.448;7.904;2023-10-19T06:48:39;4.78;;;3.42;;
46391;SDS011;32098;49.448;7.904;2023-10-19T06:51:06;6.80;;;4.30;;
46391;SDS011;32098;49.448;7.904;2023-10-19T06:53:34;6.80;;;4.00;;
46391;SDS011;32098;49.448;7.904;2023-10-19T06:56:00;8.73;;;4.18;;
46391;SDS011;32098;49.448;7.904;2023-10-19T06:58:27;6.07;;;3.85;;
46391;SDS011;32098;49.448;7.904;2023-10-19T07:00:54;5.15;;;3.72;;
46391;SDS011;32098;49.448;7.904;2023-10-19T07:03:26;6.88;;;3.58;;
46391;SDS011;32098;49.448;7.904;2023-10-19T07:05:54;8.10;;;3.35;;
46391;SDS011;32098;49.448;7.904;2023-10-19T07:08:22;7.13;;;3.38;;
46391;SDS011;32098;49.448;7.904;2023-10-19T07:10:49;7.28;;;3.67;;
46391;SDS011;32098;49.448;7.904;2023-10-19T07:13:18;6.55;;;3.58;;
46391;SDS011;32098;49.448;7.904;2023-10-19T07:15:46;4.85;;;3.60;;
46391;SDS011;32098;49.448;7.904;2023-10-19T07:18:15;7.10;;;3.38;;
46391;SDS011;32098;49.448;7.904;2023-10-19T07:20:43;7.25;;;3.33;;
46391;SDS011;32098;49.448;7.904;2023-10-19T07:23:09;7.70;;;3.63;;
46391;SDS011;32098;49.448;7.904;2023-10-19T07:25:36;8.38;;;3.53;;
46391;SDS011;32098;49.448;7.904;2023-10-19T07:28:10;5.75;;;3.58;;
46391;SDS011;32098;49.448;7.904;2023-10-19T07:30:39;12.57;;;6.63;;
46391;SDS011;32098;49.448;7.904;2023-10-19T07:33:08;9.10;;;4.40;;
46391;SDS011;32098;49.448;7.904;2023-10-19T07:35:36;5.32;;;3.95;;
46391;SDS011;32098;49.448;7.904;2023-10-19T07:38:08;9.93;;;5.72;;
46391;SDS011;32098;49.448;7.904;2023-10-19T07:40:35;10.88;;;5.13;;
46391;SDS011;32098;49.448;7.904;2023-10-19T07:43:02;7.82;;;4.07;;
46391;SDS011;32098;49.448;7.904;2023-10-19T07:45:30;8.77;;;4.35;;
46391;SDS011;32098;49.448;7.904;2023-10-19T07:47:58;6.53;;;4.32;;
46391;SDS011;32098;49.448;7.904;2023-10-19T07:50:33;5.63;;;3.95;;
46391;SDS011;32098;49.448;7.904;2023-10-19T07:53:00;6.57;;;3.67;;
46391;SDS011;32098;49.448;7.904;2023-10-19T07:55:28;7.07;;;4.50;;
46391;SDS011;32098;49.448;7.904;2023-10-19T07:57:55;7.75;;;4.05;;
46391;SDS011;32098;49.448;7.904;2023-10-19T08:00:23;7.75;;;3.80;;
46391;SDS011;32098;49.448;7.904;2023-10-19T08:02:50;8.00;;;3.80;;
46391;SDS011;32098;49.448;7.904;2023-10-19T08:05:18;7.45;;;3.90;;
46391;SDS011;32098;49.448;7.904;2023-10-19T08:07:45;8.88;;;3.90;;
46391;SDS011;32098;49.448;7.904;2023-10-19T08:10:16;6.07;;;3.17;;
46391;SDS011;32098;49.448;7.904;2023-10-19T08:12:45;5.57;;;3.22;;
46391;SDS011;32098;49.448;7.904;2023-10-19T08:15:15;7.38;;;3.40;;
46391;SDS011;32098;49.448;7.904;2023-10-19T08:17:43;7.55;;;3.22;;
46391;SDS011;32098;49.448;7.904;2023-10-19T08:20:12;6.35;;;3.72;;
46391;SDS011;32098;49.448;7.904;2023-10-19T08:22:45;5.75;;;3.20;;
46391;SDS011;32098;49.448;7.904;2023-10-19T08:25:13;8.02;;;3.13;;
46391;SDS011;32098;49.448;7.904;2023-10-19T08:27:46;5.85;;;3.10;;
46391;SDS011;32098;49.448;7.904;2023-10-19T08:30:20;6.93;;;3.03;;
46391;SDS011;32098;49.448;7.904;2023-10-19T08:32:51;5.18;;;2.95;;
46391;SDS011;32098;49.448;7.904;2023-10-19T08:35:19;6.78;;;3.30;;
46391;SDS011;32098;49.448;7.904;2023-10-19T08:37:51;7.13;;;2.78;;
46391;SDS011;32098;49.448;7.904;2023-10-19T08:40:19;6.25;;;2.67;;
46391;SDS011;32098;49.448;7.904;2023-10-19T08:42:47;5.85;;;2.70;;
46391;SDS011;32098;49.448;7.904;2023-10-19T08:45:14;6.15;;;2.72;;
46391;SDS011;32098;49.448;7.904;2023-10-19T08:47:53;6.28;;;2.63;;
46391;SDS011;32098;49.448;7.904;2023-10-19T08:50:24;5.22;;;2.20;;
46391;SDS011;32098;49.448;7.904;2023-10-19T08:52:53;4.40;;;2.70;;
46391;SDS011;32098;49.448;7.904;2023-10-19T08:55:21;5.13;;;2.72;;
46391;SDS011;32098;49.448;7.904;2023-10-19T08:58:06;5.88;;;2.65;;
46391;SDS011;32098;49.448;7.904;2023-10-19T09:00:43;5.32;;;2.33;;
46391;SDS011;32098;49.448;7.904;2023-10-19T09:03:25;5.68;;;2.83;;
46391;SDS011;32098;49.448;7.904;2023-10-19T09:05:53;4.15;;;2.78;;
46391;SDS011;32098;49.448;7.904;2023-10-19T09:08:21;4.60;;;2.58;;
46391;SDS011;32098;49.448;7.904;2023-10-19T09:10:49;3.15;;;2.60;;
46391;SDS011;32098;49.448;7.904;2023-10-19T09:13:19;3.25;;;2.20;;
46391;SDS011;32098;49.448;7.904;2023-10-19T09:15:46;3.97;;;2.15;;
46391;SDS011;32098;49.448;7.904;2023-10-19T09:18:21;4.15;;;2.50;;
46391;SDS011;32098;49.448;7.904;2023-10-19T09:20:49;3.90;;;2.08;;
46391;SDS011;32098;49.448;7.904;2023-10-19T09:23:22;6.68;;;2.40;;
46391;SDS011;32098;49.448;7.904;2023-10-19T09:25:51;7.47;;;2.53;;
46391;SDS011;32098;49.448;7.904;2023-10-19T09:28:22;3.83;;;2.15;;
46391;SDS011;32098;49.448;7.904;2023-10-19T09:30:51;4.18;;;2.60;;
46391;SDS011;32098;49.448;7.904;2023-10-19T09:33:20;5.68;;;2.70;;
46391;SDS011;32098;49.448;7.904;2023-10-19T09:35:48;4.45;;;2.22;;
46391;SDS011;32098;49.448;7.904;2023-10-19T09:38:19;4.57;;;2.33;;
46391;SDS011;32098;49.448;7.904;2023-10-19T09:40:49;6.30;;;2.83;;
46391;SDS011;32098;49.448;7.904;2023-10-19T09:43:19;4.65;;;2.70;;
46391;SDS011;32098;49.448;7.904;2023-10-19T09:45:52;2.88;;;2.13;;
46391;SDS011;32098;49.448;7.904;2023-10-19T09:48:23;6.47;;;2.40;;
46391;SDS011;32098;49.448;7.904;2023-10-19T09:50:51;5.40;;;2.22;;
46391;SDS011;32098;49.448;7.904;2023-10-19T09:53:22;4.53;;;2.45;;
46391;SDS011;32098;49.448;7.904;2023-10-19T09:55:51;5.05;;;2.75;;
46391;SDS011;32098;49.448;7.904;2023-10-19T09:58:42;3.58;;;2.35;;
46391;SDS011;32098;49.448;7.904;2023-10-19T10:01:12;3.75;;;2.33;;
46391;SDS011;32098;49.448;7.904;2023-10-19T10:06:13;4.50;;;2.58;;
46391;SDS011;32098;49.448;7.904;2023-10-19T10:08:42;4.47;;;2.30;;
46391;SDS011;32098;49.448;7.904;2023-10-19T10:11:17;3.85;;;2.20;;
46391;SDS011;32098;49.448;7.904;2023-10-19T10:13:44;4.90;;;2.67;;
46391;SDS011;32098;49.448;7.904;2023-10-19T10:16:14;3.60;;;2.58;;
46391;SDS011;32098;49.448;7.904;2023-10-19T10:18:42;4.13;;;2.40;;
46391;SDS011;32098;49.448;7.904;2023-10-19T10:21:12;4.65;;;2.60;;
46391;SDS011;32098;49.448;7.904;2023-10-19T10:23:44;3.35;;;2.00;;
46391;SDS011;32098;49.448;7.904;2023-10-19T10:26:14;3.53;;;2.00;;
46391;SDS011;32098;49.448;7.904;2023-10-19T10:28:41;3.00;;;1.88;;
46391;SDS011;32098;49.448;7.904;2023-10-19T10:31:22;3.85;;;2.10;;
46391;SDS011;32098;49.448;7.904;2023-10-19T10:33:49;4.18;;;1.90;;
46391;SDS011;32098;49.448;7.904;2023-10-19T10:36:18;2.25;;;1.60;;
46391;SDS011;32098;49.448;7.904;2023-10-19T10:38:47;2.70;;;2.33;;
46391;SDS011;32098;49.448;7.904;2023-10-19T10:41:24;2.90;;;1.80;;
46391;SDS011;32098;49.448;7.904;2023-10-19T10:43:55;2.92;;;1.80;;
46391;SDS011;32098;49.448;7.904;2023-10-19T10:46:23;6.00;;;3.42;;
46391;SDS011;32098;49.448;7.904;2023-10-19T10:48:52;4.07;;;2.92;;
46391;SDS011;32098;49.448;7.904;2023-10-19T10:51:19;3.22;;;2.00;;
46391;SDS011;32098;49.448;7.904;2023-10-19T10:53:57;3.85;;;1.88;;
46391;SDS011;32098;49.448;7.904;2023-10-19T10:56:24;4.90;;;1.85;;
46391;SDS011;32098;49.448;7.904;2023-10-19T10:58:51;2.55;;;1.65;;
46391;SDS011;32098;49.448;7.904;2023-10-19T11:01:30;3.03;;;1.20;;
46391;SDS011;32098;49.448;7.904;2023-10-19T11:04:06;4.72;;;1.70;;
46391;SDS011;32098;49.448;7.904;2023-10-19T11:06:50;3.45;;;1.50;;
46391;SDS011;32098;49.448;7.904;2023-10-19T11:09:17;2.78;;;1.48;;
46391;SDS011;32098;49.448;7.904;2023-10-19T11:11:48;3.40;;;1.50;;
46391;SDS011;32098;49.448;7.904;2023-10-19T11:14:19;3.65;;;1.65;;
46391;SDS011;32098;49.448;7.904;2023-10-19T11:16:45;1.63;;;1.40;;
46391;SDS011;32098;49.448;7.904;2023-10-19T11:19:12;1.48;;;1.20;;
46391;SDS011;32098;49.448;7.904;2023-10-19T11:21:50;2.10;;;1.33;;
46391;SDS011;32098;49.448;7.904;2023-10-19T11:24:25;1.98;;;1.33;;
46391;SDS011;32098;49.448;7.904;2023-10-19T11:26:52;4.07;;;1.58;;
46391;SDS011;32098;49.448;7.904;2023-10-19T11:29:19;2.45;;;1.55;;
46391;SDS011;32098;49.448;7.904;2023-10-19T11:31:56;3.78;;;1.77;;
46391;SDS011;32098;49.448;7.904;2023-10-19T11:34:23;2.42;;;1.60;;
46391;SDS011;32098;49.448;7.904;2023-10-19T11:36:54;2.10;;;1.38;;
46391;SDS011;32098;49.448;7.904;2023-10-19T11:39:23;2.30;;;1.35;;
46391;SDS011;32098;49.448;7.904;2023-10-19T11:41:49;1.88;;;1.52;;
46391;SDS011;32098;49.448;7.904;2023-10-19T11:44:16;2.83;;;1.60;;
46391;SDS011;32098;49.448;7.904;2023-10-19T11:46:43;2.67;;;1.52;;
46391;SDS011;32098;49.448;7.904;2023-10-19T11:49:10;4.10;;;1.50;;
46391;SDS011;32098;49.448;7.904;2023-10-19T11:51:36;1.73;;;1.40;;
46391;SDS011;32098;49.448;7.904;2023-10-19T11:54:06;3.53;;;1.83;;
46391;SDS011;32098;49.448;7.904;2023-10-19T11:56:33;3.53;;;1.48;;
46391;SDS011;32098;49.448;7.904;2023-10-19T11:59:01;4.40;;;2.15;;
46391;SDS011;32098;49.448;7.904;2023-10-19T12:01:28;2.88;;;1.38;;
46391;SDS011;32098;49.448;7.904;2023-10-19T12:03:55;6.28;;;1.73;;
46391;SDS011;32098;49.448;7.904;2023-10-19T12:06:22;2.05;;;1.40;;
46391;SDS011;32098;49.448;7.904;2023-10-19T12:08:50;3.08;;;1.67;;
46391;SDS011;32098;49.448;7.904;2023-10-19T12:11:17;3.22;;;1.85;;
46391;SDS011;32098;49.448;7.904;2023-10-19T12:13:48;2.78;;;1.90;;
46391;SDS011;32098;49.448;7.904;2023-10-19T12:16:15;5.60;;;1.90;;
46391;SDS011;32098;49.448;7.904;2023-10-19T12:18:43;2.95;;;1.90;;
46391;SDS011;32098;49.448;7.904;2023-10-19T12:21:10;4.00;;;1.50;;
46391;SDS011;32098;49.448;7.904;2023-10-19T12:23:41;2.40;;;1.65;;
46391;SDS011;32098;49.448;7.904;2023-10-19T12:26:10;2.42;;;1.75;;
46391;SDS011;32098;49.448;7.904;2023-10-19T12:28:41;2.70;;;1.65;;
46391;SDS011;32098;49.448;7.904;2023-10-19T12:31:08;3.72;;;1.70;;
46391;SDS011;32098;49.448;7.904;2023-10-19T12:33:35;2.63;;;1.50;;
46391;SDS011;32098;49.448;7.904;2023-10-19T12:36:02;2.38;;;1.90;;
46391;SDS011;32098;49.448;7.904;2023-10-19T12:38:48;2.80;;;2.00;;
46391;SDS011;32098;49.448;7.904;2023-10-19T12:41:19;5.53;;;2.25;;
46391;SDS011;32098;49.448;7.904;2023-10-19T12:43:45;3.42;;;1.90;;
46391;SDS011;32098;49.448;7.904;2023-10-19T12:46:18;2.70;;;2.20;;
46391;SDS011;32098;49.448;7.904;2023-10-19T12:48:45;2.58;;;2.20;;
46391;SDS011;32098;49.448;7.904;2023-10-19T12:51:15;4.38;;;2.75;;
46391;SDS011;32098;49.448;7.904;2023-10-19T12:53:44;2.03;;;1.83;;
46391;SDS011;32098;49.448;7.904;2023-10-19T12:56:12;2.72;;;2.10;;
46391;SDS011;32098;49.448;7.904;2023-10-19T12:58:40;2.55;;;2.15;;
46391;SDS011;32098;49.448;7.904;2023-10-19T13:01:07;3.75;;;2.28;;
46391;SDS011;32098;49.448;7.904;2023-10-19T13:03:43;1.95;;;1.80;;
46391;SDS011;32098;49.448;7.904;2023-10-19T13:06:13;2.05;;;1.67;;
46391;SDS011;32098;49.448;7.904;2023-10-19T13:08:46;2.28;;;1.90;;
46391;SDS011;32098;49.448;7.904;2023-10-19T13:11:13;2.90;;;1.90;;
46391;SDS011;32098;49.448;7.904;2023-10-19T13:13:44;3.33;;;2.20;;
46391;SDS011;32098;49.448;7.904;2023-10-19T13:16:11;2.55;;;2.13;;
46391;SDS011;32098;49.448;7.904;2023-10-19T13:18:40;3.42;;;1.90;;
46391;SDS011;32098;49.448;7.904;2023-10-19T13:21:07;2.33;;;1.95;;
46391;SDS011;32098;49.448;7.904;2023-10-19T13:23:37;3.75;;;2.17;;
46391;SDS011;32098;49.448;7.904;2023-10-19T13:26:05;1.70;;;1.60;;
46391;SDS011;32098;49.448;7.904;2023-10-19T13:28:38;3.42;;;1.73;;
46391;SDS011;32098;49.448;7.904;2023-10-19T13:31:05;1.77;;;1.40;;
46391;SDS011;32098;49.448;7.904;2023-10-19T13:33:35;1.50;;;1.40;;
46391;SDS011;32098;49.448;7.904;2023-10-19T13:36:02;1.63;;;1.52;;
46391;SDS011;32098;49.448;7.904;2023-10-19T13:38:32;2.38;;;1.10;;
46391;SDS011;32098;49.448;7.904;2023-10-19T13:41:02;1.40;;;1.30;;
46391;SDS011;32098;49.448;7.904;2023-10-19T13:43:31;1.35;;;1.27;;
46391;SDS011;32098;49.448;7.904;2023-10-19T13:46:00;1.30;;;1.20;;
46391;SDS011;32098;49.448;7.904;2023-10-19T13:48:28;1.15;;;1.15;;
46391;SDS011;32098;49.448;7.904;2023-10-19T13:50:54;1.88;;;0.95;;
46391;SDS011;32098;49.448;7.904;2023-10-19T13:53:26;2.15;;;1.00;;
46391;SDS011;32098;49.448;7.904;2023-10-19T13:55:53;3.08;;;1.27;;
46391;SDS011;32098;49.448;7.904;2023-10-19T13:58:20;2.17;;;1.52;;
46391;SDS011;32098;49.448;7.904;2023-10-19T14:00:47;3.33;;;1.33;;
46391;SDS011;32098;49.448;7.904;2023-10-19T14:03:15;2.25;;;1.20;;
46391;SDS011;32098;49.448;7.904;2023-10-19T14:05:43;1.70;;;1.33;;
46391;SDS011;32098;49.448;7.904;2023-10-19T14:08:15;1.65;;;1.17;;
46391;SDS011;32098;49.448;7.904;2023-10-19T14:10:43;1.33;;;1.10;;
46391;SDS011;32098;49.448;7.904;2023-10-19T14:13:10;1.15;;;1.00;;
46391;SDS011;32098;49.448;7.904;2023-10-19T14:15:43;1.67;;;1.20;;
46391;SDS011;32098;49.448;7.904;2023-10-19T14:18:10;1.58;;;1.17;;
46391;SDS011;32098;49.448;7.904;2023-10-19T14:20:39;1.80;;;1.20;;
46391;SDS011;32098;49.448;7.904;2023-10-19T14:23:07;1.88;;;1.23;;
46391;SDS011;32098;49.448;7.904;2023-10-19T14:25:37;1.88;;;1.20;;
46391;SDS011;32098;49.448;7.904;2023-10-19T14:28:06;1.27;;;1.17;;
46391;SDS011;32098;49.448;7.904;2023-10-19T14:30:33;1.40;;;1.30;;
46391;SDS011;32098;49.448;7.904;2023-10-19T14:33:01;2.80;;;1.85;;
46391;SDS011;32098;49.448;7.904;2023-10-19T14:35:28;2.42;;;1.50;;
46391;SDS011;32098;49.448;7.904;2023-10-19T14:37:56;2.35;;;1.88;;
46391;SDS011;32098;49.448;7.904;2023-10-19T14:40:26;3.17;;;2.10;;
46391;SDS011;32098;49.448;7.904;2023-10-19T14:42:54;1.88;;;1.50;;
46391;SDS011;32098;49.448;7.904;2023-10-19T14:45:24;1.73;;;1.40;;
46391;SDS011;32098;49.448;7.904;2023-10-19T14:47:52;2.08;;;1.60;;
46391;SDS011;32098;49.448;7.904;2023-10-19T14:50:23;1.30;;;1.20;;
46391;SDS011;32098;49.448;7.904;2023-10-19T14:52:51;3.65;;;1.40;;
46391;SDS011;32098;49.448;7.904;2023-10-19T14:55:19;1.88;;;1.35;;
46391;SDS011;32098;49.448;7.904;2023-10-19T14:57:47;2.65;;;1.10;;
46391;SDS011;32098;49.448;7.904;2023-10-19T15:00:16;2.05;;;1.27;;
46391;SDS011;32098;49.448;7.904;2023-10-19T15:03:01;1.80;;;1.38;;
46391;SDS011;32098;49.448;7.904;2023-10-19T15:05:34;2.95;;;1.40;;
46391;SDS011;32098;49.448;7.904;2023-10-19T15:08:05;1.30;;;1.20;;
46391;SDS011;32098;49.448;7.904;2023-10-19T15:10:33;3.00;;;1.00;;